Time;durP1;ratioP1;P1;durP2;ratioP2;P2;SDS_P1;SDS_P2;PMS_P1;PMS_P2;Temp;Humidity;BMP_temperature;BMP_pressure;BME280_temperature;BME280_humidity;BME280_pressure;Samples;Min_cycle;Max_cycle;Signal;HPM_P1;HPM_P2
2021/12/23 00:01:13;;;;;;;36.33;15.83;;;;;;;;;;5097201;28;20448;-71
2021/12/23 00:03:41;;;;;;;35.77;15.93;;;;;;;;;;5111444;28;20539;-75
2021/12/23 00:06:08;;;;;;;35.47;16.97;;;;;;;;;;5098073;28;20903;-77
2021/12/23 00:08:37;;;;;;;37.27;19.00;;;;;;;;;;5111163;28;21019;-77
2021/12/23 00:11:04;;;;;;;35.83;16.47;;;;;;;;;;5110925;28;20468;-77
2021/12/23 00:13:33;;;;;;;32.93;15.50;;;;;;;;;;5112520;28;20449;-76
2021/12/23 00:16:06;;;;;;;29.93;15.57;;;;;;;;;;5115330;28;20526;-77
2021/12/23 00:18:47;;;;;;;29.57;16.33;;;;;;;;;;5115111;28;20469;-76
2021/12/23 00:24:01;;;;;;;33.23;14.70;;;;;;;;;;5101844;28;20806;-77
2021/12/23 00:26:29;;;;;;;33.53;16.10;;;;;;;;;;5115072;28;20992;-76
2021/12/23 00:28:57;;;;;;;28.33;14.23;;;;;;;;;;5115478;28;20447;-77
2021/12/23 00:31:24;;;;;;;30.37;16.50;;;;;;;;;;5114900;28;20447;-77
2021/12/23 00:33:51;;;;;;;26.80;13.90;;;;;;;;;;5115008;28;20460;-77
2021/12/23 00:36:18;;;;;;;37.07;17.70;;;;;;;;;;5113894;28;20889;-77
2021/12/23 00:38:49;;;;;;;28.97;14.53;;;;;;;;;;5115225;28;20526;-77
2021/12/23 00:41:19;;;;;;;33.17;15.50;;;;;;;;;;5113962;28;20455;-77
2021/12/23 00:43:46;;;;;;;31.33;16.53;;;;;;;;;;5114796;28;20534;-77
2021/12/23 00:46:14;;;;;;;27.00;13.50;;;;;;;;;;5114524;28;20453;-77
2021/12/23 00:48:41;;;;;;;35.47;16.87;;;;;;;;;;5114484;28;20807;-77
2021/12/23 00:51:08;;;;;;;28.93;13.73;;;;;;;;;;5114098;28;20452;-76
2021/12/23 00:53:39;;;;;;;32.30;16.07;;;;;;;;;;5114818;28;20855;-77
2021/12/23 00:56:06;;;;;;;40.27;17.43;;;;;;;;;;5113956;28;20931;-76
2021/12/23 00:58:34;;;;;;;33.17;17.67;;;;;;;;;;5114617;28;20503;-77
2021/12/23 01:01:01;;;;;;;34.57;16.20;;;;;;;;;;5113642;28;20501;-76
2021/12/23 01:03:29;;;;;;;33.40;16.07;;;;;;;;;;5114489;28;20535;-75
2021/12/23 01:05:57;;;;;;;30.30;15.67;;;;;;;;;;5114698;28;20546;-78
2021/12/23 01:08:24;;;;;;;34.03;16.57;;;;;;;;;;5114809;28;20788;-77
2021/12/23 01:10:55;;;;;;;35.07;17.73;;;;;;;;;;5113838;28;20462;-77
2021/12/23 01:13:26;;;;;;;29.10;15.77;;;;;;;;;;5113848;28;20462;-76
2021/12/23 01:16:03;;;;;;;33.10;15.20;;;;;;;;;;5114115;28;20448;-77
2021/12/23 01:18:31;;;;;;;29.00;16.53;;;;;;;;;;5113711;28;20529;-77
2021/12/23 01:21:15;;;;;;;28.23;17.27;;;;;;;;;;5113603;28;20752;-72
2021/12/23 01:23:44;;;;;;;26.73;14.20;;;;;;;;;;5113966;28;20447;-77
2021/12/23 01:26:12;;;;;;;30.43;15.87;;;;;;;;;;5113624;28;20436;-77
2021/12/23 01:28:39;;;;;;;26.13;15.20;;;;;;;;;;5114188;28;20535;-77
2021/12/23 01:31:07;;;;;;;34.23;16.73;;;;;;;;;;5113397;28;20432;-77
2021/12/23 01:33:34;;;;;;;33.87;16.27;;;;;;;;;;5113897;28;20442;-77
2021/12/23 01:36:02;;;;;;;29.63;16.30;;;;;;;;;;5113175;28;20452;-76
2021/12/23 01:38:29;;;;;;;34.83;15.40;;;;;;;;;;5113979;28;20475;-75
2021/12/23 01:40:56;;;;;;;30.17;15.43;;;;;;;;;;5113742;28;20440;-77
2021/12/23 01:43:23;;;;;;;33.57;16.87;;;;;;;;;;5114007;28;20448;-77
2021/12/23 01:45:51;;;;;;;28.93;15.87;;;;;;;;;;5114124;28;20833;-76
2021/12/23 01:48:20;;;;;;;35.50;19.57;;;;;;;;;;5112704;28;21063;-76
2021/12/23 01:50:48;;;;;;;30.97;16.67;;;;;;;;;;5113400;28;20441;-77
2021/12/23 01:53:15;;;;;;;34.17;17.93;;;;;;;;;;5113173;28;20437;-77
2021/12/23 01:55:43;;;;;;;33.83;16.93;;;;;;;;;;5113392;28;20933;-77
2021/12/23 01:58:12;;;;;;;30.00;15.43;;;;;;;;;;5100858;28;20472;-77
2021/12/23 02:00:40;;;;;;;34.00;18.00;;;;;;;;;;5113541;28;20528;-77
2021/12/23 02:03:08;;;;;;;34.80;17.60;;;;;;;;;;5112872;28;20438;-77
2021/12/23 02:05:36;;;;;;;28.73;15.47;;;;;;;;;;5113443;28;20472;-76
2021/12/23 02:08:03;;;;;;;26.60;14.50;;;;;;;;;;5112839;28;20449;-76
2021/12/23 02:10:31;;;;;;;30.50;16.80;;;;;;;;;;5113471;28;20525;-77
2021/12/23 02:12:59;;;;;;;43.77;17.33;;;;;;;;;;5112631;28;20436;-71
2021/12/23 02:15:26;;;;;;;30.63;15.33;;;;;;;;;;5113369;28;20458;-77
2021/12/23 02:17:53;;;;;;;25.03;13.63;;;;;;;;;;5113055;28;20482;-77
2021/12/23 02:20:23;;;;;;;27.53;14.27;;;;;;;;;;5112586;28;20451;-78
2021/12/23 02:22:50;;;;;;;36.03;16.23;;;;;;;;;;5113181;28;20433;-77
2021/12/23 02:25:17;;;;;;;32.70;16.40;;;;;;;;;;5112603;28;20439;-76
2021/12/23 02:27:45;;;;;;;30.53;15.33;;;;;;;;;;5113376;28;20771;-77
2021/12/23 02:30:14;;;;;;;33.20;16.67;;;;;;;;;;5112244;28;20472;-78
2021/12/23 02:32:41;;;;;;;25.80;16.13;;;;;;;;;;5112334;28;20437;-78
2021/12/23 02:35:11;;;;;;;31.90;15.80;;;;;;;;;;5112523;28;20459;-77
2021/12/23 02:37:40;;;;;;;29.73;15.90;;;;;;;;;;5112352;28;21054;-75
2021/12/23 02:40:08;;;;;;;29.80;16.40;;;;;;;;;;5113179;28;20519;-78
2021/12/23 02:42:35;;;;;;;32.27;14.60;;;;;;;;;;5113298;28;20783;-76
2021/12/23 02:45:04;;;;;;;31.47;15.10;;;;;;;;;;5112742;28;20438;-75
2021/12/23 02:47:31;;;;;;;29.00;14.80;;;;;;;;;;5113272;28;20453;-78
2021/12/23 02:49:58;;;;;;;24.60;15.80;;;;;;;;;;5121867;28;20445;-71
2021/12/23 02:52:25;;;;;;;27.40;13.20;;;;;;;;;;5112841;28;20838;-77
2021/12/23 02:54:57;;;;;;;30.10;15.93;;;;;;;;;;5113538;28;20856;-77
2021/12/23 02:57:25;;;;;;;26.17;13.97;;;;;;;;;;5112889;28;20524;-78
2021/12/23 02:59:52;;;;;;;24.33;12.40;;;;;;;;;;5112881;28;21049;-78
2021/12/23 03:02:19;;;;;;;25.70;13.20;;;;;;;;;;5111408;28;20441;-78
2021/12/23 03:04:46;;;;;;;20.97;13.70;;;;;;;;;;5112272;28;20521;-77
2021/12/23 03:07:13;;;;;;;22.67;13.83;;;;;;;;;;5115880;28;20447;-78
2021/12/23 03:09:40;;;;;;;25.17;12.77;;;;;;;;;;5129616;28;20477;-77
2021/12/23 03:12:09;;;;;;;30.33;14.77;;;;;;;;;;5127195;28;20464;-77
2021/12/23 03:14:36;;;;;;;23.40;11.97;;;;;;;;;;5121320;28;20503;-77
2021/12/23 03:17:04;;;;;;;27.43;13.70;;;;;;;;;;5131044;28;20506;-76
2021/12/23 03:19:31;;;;;;;28.93;14.13;;;;;;;;;;5133351;28;20549;-71
2021/12/23 03:21:58;;;;;;;27.77;14.57;;;;;;;;;;5127836;28;20485;-70
2021/12/23 03:24:25;;;;;;;31.03;13.80;;;;;;;;;;5112883;28;20532;-78
2021/12/23 03:26:53;;;;;;;24.37;12.87;;;;;;;;;;5112865;28;20452;-77
2021/12/23 03:29:21;;;;;;;22.13;13.60;;;;;;;;;;5111462;28;20445;-78
2021/12/23 03:31:48;;;;;;;29.27;15.07;;;;;;;;;;5111822;28;20448;-77
2021/12/23 03:34:15;;;;;;;30.77;14.70;;;;;;;;;;5111540;28;20444;-77
2021/12/23 03:36:43;;;;;;;27.60;12.80;;;;;;;;;;5111774;28;20802;-77
2021/12/23 03:39:10;;;;;;;29.13;14.17;;;;;;;;;;5111175;28;20999;-77
2021/12/23 03:41:37;;;;;;;25.40;13.57;;;;;;;;;;5111329;28;20951;-77
2021/12/23 03:44:04;;;;;;;30.00;16.13;;;;;;;;;;5111525;28;20774;-77
2021/12/23 03:46:37;;;;;;;24.43;12.90;;;;;;;;;;5112118;28;20855;-77
2021/12/23 03:49:04;;;;;;;27.40;13.97;;;;;;;;;;5113814;28;20446;-76
2021/12/23 03:51:31;;;;;;;22.23;12.33;;;;;;;;;;5115658;28;20443;-77
2021/12/23 03:53:58;;;;;;;24.37;12.63;;;;;;;;;;5115127;28;20442;-73
2021/12/23 03:56:26;;;;;;;29.53;13.10;;;;;;;;;;5116286;28;20548;-77
2021/12/23 03:58:54;;;;;;;19.77;11.50;;;;;;;;;;5116040;28;20478;-77
2021/12/23 04:01:22;;;;;;;25.60;13.97;;;;;;;;;;5114986;28;20442;-77
2021/12/23 04:03:52;;;;;;;24.43;12.93;;;;;;;;;;5115698;28;20441;-77
2021/12/23 04:06:20;;;;;;;20.30;11.20;;;;;;;;;;5115386;28;20990;-77
2021/12/23 04:08:47;;;;;;;28.63;15.03;;;;;;;;;;5115559;28;20443;-77
2021/12/23 04:11:14;;;;;;;35.07;15.00;;;;;;;;;;5114475;28;20490;-77
2021/12/23 04:13:41;;;;;;;22.77;12.30;;;;;;;;;;5115732;28;20433;-76
2021/12/23 04:16:08;;;;;;;23.33;11.97;;;;;;;;;;5115276;28;20441;-77
2021/12/23 04:18:36;;;;;;;21.10;10.93;;;;;;;;;;5115151;28;20469;-76
2021/12/23 04:21:04;;;;;;;30.67;13.57;;;;;;;;;;5114326;28;20438;-78
2021/12/23 04:23:33;;;;;;;22.47;12.93;;;;;;;;;;5115516;28;20438;-77
2021/12/23 04:26:01;;;;;;;23.10;12.43;;;;;;;;;;5115190;28;20445;-77
2021/12/23 04:28:29;;;;;;;32.23;12.30;;;;;;;;;;5115587;28;20449;-77
2021/12/23 04:30:56;;;;;;;23.77;14.27;;;;;;;;;;5115049;28;20447;-77
2021/12/23 04:33:24;;;;;;;21.83;11.37;;;;;;;;;;5115155;28;20450;-75
2021/12/23 04:35:51;;;;;;;32.70;12.87;;;;;;;;;;5114914;28;20545;-77
2021/12/23 04:38:20;;;;;;;20.97;12.70;;;;;;;;;;5114265;28;20944;-77
2021/12/23 04:40:47;;;;;;;19.27;12.17;;;;;;;;;;5114624;28;20436;-75
2021/12/23 04:43:14;;;;;;;24.50;13.17;;;;;;;;;;5114564;28;20441;-77
2021/12/23 04:45:41;;;;;;;28.70;14.30;;;;;;;;;;5115056;28;20478;-77
2021/12/23 04:48:08;;;;;;;24.20;13.90;;;;;;;;;;5114194;28;20444;-77
2021/12/23 04:50:35;;;;;;;22.40;12.53;;;;;;;;;;5114383;28;20468;-76
2021/12/23 04:53:02;;;;;;;22.73;12.90;;;;;;;;;;5114073;28;20997;-77
2021/12/23 04:55:31;;;;;;;22.70;12.40;;;;;;;;;;5115084;28;20773;-76
2021/12/23 04:57:58;;;;;;;25.27;13.80;;;;;;;;;;5113932;28;20937;-71
2021/12/23 05:00:26;;;;;;;21.67;12.03;;;;;;;;;;5113988;28;20530;-75
2021/12/23 05:02:53;;;;;;;24.57;12.63;;;;;;;;;;5101631;28;20482;-77
2021/12/23 05:05:20;;;;;;;24.97;13.10;;;;;;;;;;5113743;28;20447;-76
2021/12/23 05:07:48;;;;;;;22.17;12.60;;;;;;;;;;5114453;28;20441;-77
2021/12/23 05:10:16;;;;;;;28.53;12.70;;;;;;;;;;5114030;28;20442;-78
2021/12/23 05:12:46;;;;;;;22.70;12.03;;;;;;;;;;5114415;28;20491;-77
2021/12/23 05:15:15;;;;;;;25.53;14.53;;;;;;;;;;5113954;28;20462;-76
2021/12/23 05:17:42;;;;;;;21.93;12.63;;;;;;;;;;5114321;28;20522;-77
2021/12/23 05:20:10;;;;;;;21.10;12.13;;;;;;;;;;5113326;28;20475;-77
2021/12/23 05:22:38;;;;;;;20.30;11.33;;;;;;;;;;5113542;28;20921;-76
2021/12/23 05:25:05;;;;;;;25.17;12.87;;;;;;;;;;5113436;28;20446;-77
2021/12/23 05:27:33;;;;;;;23.37;12.30;;;;;;;;;;5114345;28;20447;-76
2021/12/23 05:30:02;;;;;;;28.70;12.43;;;;;;;;;;5113594;28;20450;-76
2021/12/23 05:32:29;;;;;;;26.30;12.37;;;;;;;;;;5113501;28;20439;-76
2021/12/23 05:34:56;;;;;;;23.93;12.33;;;;;;;;;;5114080;28;20894;-77
2021/12/23 05:37:23;;;;;;;30.80;13.07;;;;;;;;;;5114194;28;20903;-78
2021/12/23 05:39:50;;;;;;;21.50;13.90;;;;;;;;;;5113526;28;20471;-77
2021/12/23 05:42:18;;;;;;;19.20;12.67;;;;;;;;;;5113081;28;20849;-77
2021/12/23 05:44:45;;;;;;;26.23;12.30;;;;;;;;;;5113622;28;20440;-77
2021/12/23 05:47:13;;;;;;;21.63;12.00;;;;;;;;;;5113560;28;20475;-77
2021/12/23 05:49:40;;;;;;;26.03;12.80;;;;;;;;;;5113201;28;20538;-77
2021/12/23 05:52:08;;;;;;;24.20;11.60;;;;;;;;;;5112495;28;20440;-76
2021/12/23 05:54:35;;;;;;;21.40;12.83;;;;;;;;;;5113747;28;20442;-75
2021/12/23 05:57:02;;;;;;;20.30;11.47;;;;;;;;;;5112926;28;20538;-76
2021/12/23 05:59:30;;;;;;;24.87;13.17;;;;;;;;;;5113177;28;21002;-76
2021/12/23 06:01:57;;;;;;;20.03;11.00;;;;;;;;;;5113551;28;20434;-78
2021/12/23 06:04:26;;;;;;;23.80;12.80;;;;;;;;;;5113482;28;20524;-77
2021/12/23 06:06:54;;;;;;;23.30;13.80;;;;;;;;;;5113270;28;20972;-77
2021/12/23 06:09:21;;;;;;;24.83;12.47;;;;;;;;;;5099719;28;20528;-77
2021/12/23 06:11:48;;;;;;;23.87;12.67;;;;;;;;;;5112125;28;20840;-76
2021/12/23 06:14:16;;;;;;;22.07;13.70;;;;;;;;;;5112828;28;20764;-76
2021/12/23 06:16:43;;;;;;;30.33;11.80;;;;;;;;;;5113245;28;20435;-76
2021/12/23 06:19:10;;;;;;;24.93;13.27;;;;;;;;;;5112399;28;20475;-75
2021/12/23 06:21:39;;;;;;;27.47;13.20;;;;;;;;;;5112893;28;20799;-76
2021/12/23 06:24:07;;;;;;;26.93;12.93;;;;;;;;;;5112709;28;20435;-77
2021/12/23 06:26:34;;;;;;;27.50;13.13;;;;;;;;;;5113176;28;20437;-77
2021/12/23 06:29:01;;;;;;;26.10;12.97;;;;;;;;;;5112442;28;20440;-77
2021/12/23 06:31:29;;;;;;;23.50;11.13;;;;;;;;;;5112794;28;20529;-75
2021/12/23 06:33:56;;;;;;;26.43;12.00;;;;;;;;;;5112840;28;20915;-77
2021/12/23 06:36:23;;;;;;;21.00;12.00;;;;;;;;;;5112732;28;20473;-77
2021/12/23 06:38:52;;;;;;;23.07;11.93;;;;;;;;;;5112801;28;20482;-77
2021/12/23 06:41:19;;;;;;;24.90;13.20;;;;;;;;;;5111846;28;20531;-77
2021/12/23 06:43:46;;;;;;;29.83;14.10;;;;;;;;;;5112642;28;20432;-78
2021/12/23 06:46:14;;;;;;;26.67;14.33;;;;;;;;;;5112382;28;20444;-77
2021/12/23 06:48:41;;;;;;;18.33;12.60;;;;;;;;;;5112976;28;20473;-77
2021/12/23 06:51:08;;;;;;;20.80;11.70;;;;;;;;;;5123537;28;20529;-77
2021/12/23 06:53:35;;;;;;;21.40;12.33;;;;;;;;;;5126515;28;20933;-76
2021/12/23 06:56:04;;;;;;;26.27;13.47;;;;;;;;;;5116266;28;20467;-78
2021/12/23 06:58:33;;;;;;;27.20;13.13;;;;;;;;;;5121437;28;20489;-76
2021/12/23 07:01:00;;;;;;;30.90;13.37;;;;;;;;;;5130588;28;20436;-73
2021/12/23 07:03:41;;;;;;;23.67;13.40;;;;;;;;;;5132150;28;20519;-77
2021/12/23 07:06:08;;;;;;;22.67;11.33;;;;;;;;;;5108918;28;20470;-76
2021/12/23 07:08:37;;;;;;;24.87;12.97;;;;;;;;;;5117231;28;20496;-76
2021/12/23 07:11:06;;;;;;;23.93;13.93;;;;;;;;;;5111634;28;20843;-76
2021/12/23 07:13:33;;;;;;;23.20;13.67;;;;;;;;;;5112029;28;20433;-77
2021/12/23 07:16:01;;;;;;;23.57;12.33;;;;;;;;;;5111924;28;20443;-77
2021/12/23 07:18:29;;;;;;;26.33;13.03;;;;;;;;;;5111990;28;20500;-74
2021/12/23 07:20:56;;;;;;;25.60;12.20;;;;;;;;;;5111746;28;20477;-77
2021/12/23 07:23:23;;;;;;;25.23;11.60;;;;;;;;;;5112106;28;20458;-77
2021/12/23 07:25:51;;;;;;;24.03;12.90;;;;;;;;;;5112192;28;20444;-77
2021/12/23 07:28:19;;;;;;;26.60;12.87;;;;;;;;;;5111510;28;20685;-77
2021/12/23 07:30:47;;;;;;;27.80;12.20;;;;;;;;;;5111946;28;20463;-77
2021/12/23 07:33:14;;;;;;;25.20;12.87;;;;;;;;;;5111109;28;20449;-77
2021/12/23 07:35:41;;;;;;;28.50;12.80;;;;;;;;;;5112138;28;20535;-77
2021/12/23 07:38:08;;;;;;;24.47;12.70;;;;;;;;;;5111642;28;20466;-76
2021/12/23 07:40:36;;;;;;;22.80;13.37;;;;;;;;;;5111537;28;20479;-76
2021/12/23 07:43:21;;;;;;;24.00;12.00;;;;;;;;;;5111171;28;20435;-77
2021/12/23 07:45:49;;;;;;;22.67;13.10;;;;;;;;;;5112057;28;20447;-78
2021/12/23 07:48:16;;;;;;;24.57;13.10;;;;;;;;;;5111136;28;20443;-77
2021/12/23 07:50:43;;;;;;;24.63;11.87;;;;;;;;;;5111574;28;20472;-77
2021/12/23 07:53:11;;;;;;;29.80;14.00;;;;;;;;;;5111075;28;20435;-78
2021/12/23 07:55:42;;;;;;;20.13;10.90;;;;;;;;;;5112086;28;20521;-78
2021/12/23 07:58:09;;;;;;;21.33;11.60;;;;;;;;;;5099533;28;20542;-78
2021/12/23 08:00:37;;;;;;;24.10;11.83;;;;;;;;;;5111161;28;20571;-77
2021/12/23 08:03:05;;;;;;;21.00;11.50;;;;;;;;;;5111037;28;20839;-77
2021/12/23 08:05:33;;;;;;;24.57;13.33;;;;;;;;;;5111409;28;20450;-78
2021/12/23 08:08:00;;;;;;;25.90;13.80;;;;;;;;;;5111062;28;20447;-77
2021/12/23 08:10:28;;;;;;;24.20;11.50;;;;;;;;;;5111345;28;20446;-77
2021/12/23 08:12:55;;;;;;;26.70;12.87;;;;;;;;;;5111818;28;20798;-77
2021/12/23 08:15:22;;;;;;;27.33;13.07;;;;;;;;;;5110750;28;20930;-77
2021/12/23 08:17:50;;;;;;;23.83;12.50;;;;;;;;;;5111256;28;20995;-77
2021/12/23 08:20:19;;;;;;;27.37;12.07;;;;;;;;;;5110010;28;21102;-77
2021/12/23 08:22:46;;;;;;;22.67;10.57;;;;;;;;;;5111602;28;20500;-77
2021/12/23 08:25:14;;;;;;;26.60;12.03;;;;;;;;;;5110888;28;20562;-77
2021/12/23 08:27:42;;;;;;;29.70;12.47;;;;;;;;;;5111262;28;20945;-78
2021/12/23 08:30:10;;;;;;;29.87;12.40;;;;;;;;;;5110504;28;20438;-77
2021/12/23 08:32:38;;;;;;;20.57;11.73;;;;;;;;;;5111412;28;20465;-77
2021/12/23 08:35:05;;;;;;;20.70;11.10;;;;;;;;;;5112680;28;20527;-77
2021/12/23 08:37:33;;;;;;;17.80;10.17;;;;;;;;;;5115240;28;20978;-77
2021/12/23 08:40:01;;;;;;;16.33;11.00;;;;;;;;;;5114041;28;20824;-77
2021/12/23 08:42:28;;;;;;;19.30;11.43;;;;;;;;;;5115259;28;20449;-76
2021/12/23 08:44:55;;;;;;;22.00;11.57;;;;;;;;;;5114987;28;20942;-78
2021/12/23 08:47:22;;;;;;;25.07;11.70;;;;;;;;;;5114464;28;20438;-78
2021/12/23 08:49:49;;;;;;;22.60;11.60;;;;;;;;;;5114690;28;20457;-78
2021/12/23 08:52:16;;;;;;;21.40;10.37;;;;;;;;;;5114100;28;20443;-78
2021/12/23 08:54:45;;;;;;;24.63;11.30;;;;;;;;;;5115156;28;20526;-77
2021/12/23 08:57:12;;;;;;;20.20;11.23;;;;;;;;;;5114579;28;20442;-77
2021/12/23 08:59:39;;;;;;;17.10;11.13;;;;;;;;;;5114663;28;20531;-77
2021/12/23 09:02:06;;;;;;;23.80;11.33;;;;;;;;;;5113812;28;20435;-77
2021/12/23 09:04:34;;;;;;;21.50;10.07;;;;;;;;;;5114950;28;20435;-78
2021/12/23 09:07:01;;;;;;;22.13;11.13;;;;;;;;;;5114308;28;20477;-77
2021/12/23 09:09:31;;;;;;;19.60;10.73;;;;;;;;;;5114409;28;20446;-75
2021/12/23 09:12:00;;;;;;;19.40;11.33;;;;;;;;;;5113600;28;20440;-72
2021/12/23 09:14:28;;;;;;;20.80;11.53;;;;;;;;;;5114809;28;20445;-78
2021/12/23 09:16:55;;;;;;;20.63;11.33;;;;;;;;;;5114596;28;20471;-79
2021/12/23 09:19:22;;;;;;;17.87;11.07;;;;;;;;;;5113355;28;20525;-78
2021/12/23 09:21:50;;;;;;;22.80;12.63;;;;;;;;;;5114099;28;20451;-77
2021/12/23 09:24:18;;;;;;;19.03;10.67;;;;;;;;;;5113866;28;20444;-78
2021/12/23 09:26:51;;;;;;;26.97;12.00;;;;;;;;;;5114468;28;20946;-78
2021/12/23 09:32:51;;;;;;;21.50;10.47;;;;;;;;;;5113949;28;20843;-79
2021/12/23 09:34:54;;;;;;;20.03;11.83;;;;;;;;;;5114017;28;20434;-80
2021/12/23 09:37:21;;;;;;;21.50;11.80;;;;;;;;;;5113704;28;20959;-80
2021/12/23 09:39:53;;;;;;;18.57;10.77;;;;;;;;;;5113887;28;20594;-79
2021/12/23 09:42:21;;;;;;;23.33;10.97;;;;;;;;;;5113665;28;20828;-79
2021/12/23 09:44:50;;;;;;;21.67;10.93;;;;;;;;;;5114096;28;20818;-79
2021/12/23 09:47:17;;;;;;;18.40;10.37;;;;;;;;;;5113293;28;20995;-79
2021/12/23 09:49:46;;;;;;;20.90;10.50;;;;;;;;;;5113462;28;20440;-79
2021/12/23 09:52:13;;;;;;;20.83;11.43;;;;;;;;;;5113591;28;20462;-79
2021/12/23 09:54:43;;;;;;;17.47;8.93;;;;;;;;;;5113883;28;20445;-79
2021/12/23 09:57:10;;;;;;;16.13;9.77;;;;;;;;;;5113851;28;20813;-79
2021/12/23 09:59:38;;;;;;;17.07;9.57;;;;;;;;;;5099951;28;20938;-80
2021/12/23 10:02:07;;;;;;;16.20;9.17;;;;;;;;;;5112990;28;20439;-78
2021/12/23 10:04:34;;;;;;;14.30;8.10;;;;;;;;;;5113791;28;20447;-79
2021/12/23 10:07:01;;;;;;;14.37;8.80;;;;;;;;;;5113399;28;20530;-79
2021/12/23 10:09:41;;;;;;;15.93;7.97;;;;;;;;;;5113649;28;20443;-76
2021/12/23 10:31:28;;;;;;;15.83;9.00;;;;;;;;;;5120527;28;20755;-79
2021/12/23 10:37:14;;;;;;;17.80;8.83;;;;;;;;;;5114918;28;20807;-80
2021/12/23 10:39:43;;;;;;;15.47;8.20;;;;;;;;;;5115586;28;20557;-79
2021/12/23 10:42:11;;;;;;;16.00;8.73;;;;;;;;;;5124151;28;20435;-79
2021/12/23 10:44:39;;;;;;;13.23;8.53;;;;;;;;;;5135883;28;20458;-76
2021/12/23 10:47:08;;;;;;;11.83;7.27;;;;;;;;;;5127767;28;20495;-79
2021/12/23 10:49:42;;;;;;;15.23;8.17;;;;;;;;;;5120209;28;20450;-77
2021/12/23 10:52:16;;;;;;;10.43;6.60;;;;;;;;;;5112175;28;20470;-79
2021/12/23 11:00:20;;;;;;;10.20;6.57;;;;;;;;;;5097445;28;20467;-80
2021/12/23 11:03:02;;;;;;;12.03;7.30;;;;;;;;;;5112373;28;20439;-80
2021/12/23 11:05:35;;;;;;;10.00;7.03;;;;;;;;;;5109516;28;20458;-78
2021/12/23 11:08:12;;;;;;;13.77;8.10;;;;;;;;;;5111737;28;20514;-79
2021/12/23 11:11:05;;;;;;;10.57;7.00;;;;;;;;;;5111561;28;20443;-79
2021/12/23 11:28:04;;;;;;;10.23;6.23;;;;;;;;;;5018906;28;20434;-78
2021/12/23 11:39:10;;;;;;;9.67;6.30;;;;;;;;;;5100338;28;20419;-80
2021/12/23 11:41:40;;;;;;;9.20;5.53;;;;;;;;;;5111472;28;20471;-79
2021/12/23 11:44:08;;;;;;;9.10;5.83;;;;;;;;;;5111999;28;20458;-79
2021/12/23 11:46:39;;;;;;;7.77;5.00;;;;;;;;;;5111861;28;20461;-77
2021/12/23 11:49:09;;;;;;;10.20;6.03;;;;;;;;;;5111478;28;20436;-79
2021/12/23 11:51:46;;;;;;;9.60;5.40;;;;;;;;;;5098480;28;20790;-79
2021/12/23 11:54:18;;;;;;;10.47;5.83;;;-0.90;1.00;;;;;;5111229;28;20474;-79
2021/12/23 11:56:47;;;;;;;8.40;6.20;;;6.70;1.00;;;;;;5111677;28;20526;-79
2021/12/23 11:59:16;;;;;;;7.27;5.57;;;6.70;1.00;;;;;;5111457;28;20530;-80
2021/12/23 12:01:45;;;;;;;9.23;6.20;;;6.70;1.00;;;;;;5111567;28;20479;-80
2021/12/23 12:04:14;;;;;;;8.93;5.60;;;6.70;1.00;;;;;;5111125;28;20471;-80
2021/12/23 12:06:45;;;;;;;10.47;6.73;;;6.80;1.00;;;;;;5111851;28;20915;-82
2021/12/23 12:09:18;;;;;;;12.83;6.57;;;6.90;1.00;;;;;;5111749;28;20919;-80
2021/12/23 12:11:51;;;;;;;13.60;8.27;;;7.00;1.00;;;;;;5115652;28;20457;-79
2021/12/23 12:14:42;;;;;;;13.63;8.40;;;7.00;1.00;;;;;;5102221;28;20789;-80
2021/12/23 12:17:34;;;;;;;8.63;6.50;;;7.10;1.00;;;;;;5114887;28;20472;-79
2021/12/23 12:20:09;;;;;;;9.77;5.60;;;7.20;1.00;;;;;;5114652;28;20443;-79
2021/12/23 12:23:08;;;;;;;7.47;4.87;;;7.40;1.00;;;;;;5115492;28;20442;-79
2021/12/23 12:25:59;;;;;;;4.97;4.27;;;7.30;1.00;;;;;;5070356;28;20443;-79
2021/12/23 12:28:32;;;;;;;8.53;4.70;;;7.40;1.00;;;;;;5115288;28;20495;-80
2021/12/23 12:31:01;;;;;;;8.30;4.30;;;7.50;1.00;;;;;;5114547;28;20435;-79
2021/12/23 12:33:54;;;;;;;6.10;4.80;;;7.60;1.00;;;;;;5115296;28;20932;-76
2021/12/23 12:36:23;;;;;;;6.10;4.40;;;7.70;1.00;;;;;;5099706;28;20491;-80
2021/12/23 12:38:52;;;;;;;8.70;5.57;;;7.50;1.00;;;;;;5114990;28;20435;-78
2021/12/23 12:41:29;;;;;;;7.47;4.90;;;7.60;1.00;;;;;;5114208;28;20891;-80
2021/12/23 12:44:03;;;;;;;5.30;4.10;;;7.60;1.00;;;;;;5115682;28;20861;-81
2021/12/23 12:46:56;;;;;;;6.57;3.60;;;7.60;1.00;;;;;;5115406;28;20530;-79
2021/12/23 12:49:28;;;;;;;6.27;4.27;;;7.80;1.00;;;;;;5115094;28;20432;-80
2021/12/23 12:51:57;;;;;;;7.23;5.37;;;7.90;1.00;;;;;;5114815;28;20456;-80
2021/12/23 12:54:31;;;;;;;7.73;4.23;;;7.80;1.00;;;;;;5114687;28;20539;-80
2021/12/23 12:57:03;;;;;;;5.77;4.67;;;7.70;1.00;;;;;;5114638;28;20454;-70
2021/12/23 12:59:35;;;;;;;6.07;4.27;;;7.80;1.00;;;;;;5114226;28;20519;-76
2021/12/23 13:02:02;;;;;;;9.40;4.67;;;7.70;1.00;;;;;;5114370;28;20481;-80
2021/12/23 13:04:33;;;;;;;6.97;3.87;;;7.70;1.00;;;;;;5114259;28;20542;-79
2021/12/23 13:07:15;;;;;;;6.03;4.73;;;7.60;1.00;;;;;;5114244;28;20455;-80
2021/12/23 13:09:52;;;;;;;5.40;4.50;;;7.60;1.00;;;;;;5114237;28;20439;-80
2021/12/23 13:12:31;;;;;;;8.90;4.60;;;7.50;1.00;;;;;;5113596;28;20443;-79
2021/12/23 13:15:16;;;;;;;4.67;3.67;;;7.60;1.00;;;;;;5113978;28;20435;-72
2021/12/23 13:18:02;;;;;;;6.40;5.00;;;7.70;1.00;;;;;;5103386;28;20440;-80
2021/12/23 13:20:41;;;;;;;6.40;4.13;;;7.80;99.90;;;;;;5113219;28;20440;-79
2021/12/23 13:23:13;;;;;;;7.67;4.27;;;7.80;1.00;;;;;;5113905;28;20471;-80
2021/12/23 13:25:49;;;;;;;6.40;4.70;;;7.70;99.90;;;;;;5101572;28;20793;-80
2021/12/23 13:28:26;;;;;;;4.80;3.90;;;7.80;99.90;;;;;;5113226;28;20483;-80
2021/12/23 13:30:54;;;;;;;5.37;3.50;;;7.80;99.90;;;;;;5114116;28;20442;-80
2021/12/23 13:33:22;;;;;;;6.23;4.17;;;7.80;99.90;;;;;;5113591;28;20534;-79
2021/12/23 13:35:49;;;;;;;5.80;3.20;;;7.80;99.90;;;;;;5113580;28;20456;-80
2021/12/23 13:38:34;;;;;;;6.53;3.90;;;7.70;99.90;;;;;;5073042;28;20463;-80
2021/12/23 13:41:24;;;;;;;7.70;4.40;;;7.70;99.90;;;;;;5072855;28;20492;-79
2021/12/23 13:43:53;;;;;;;5.57;4.13;;;7.80;99.90;;;;;;5073634;28;20460;-80
2021/12/23 13:46:20;;;;;;;4.83;4.27;;;7.70;99.90;;;;;;5072867;28;20528;-79
2021/12/23 13:48:59;;;;;;;7.10;3.87;;;7.60;99.90;;;;;;5073053;28;20473;-80
2021/12/23 13:51:31;;;;;;;7.03;4.50;;;7.70;99.90;;;;;;5073139;28;20815;-80
2021/12/23 13:54:10;;;;;;;5.50;3.40;;;7.60;99.90;;;;;;5073721;28;20465;-80
2021/12/23 13:56:39;;;;;;;5.73;3.47;;;7.60;99.90;;;;;;5061947;28;20443;-79
2021/12/23 13:59:13;;;;;;;5.07;3.83;;;7.50;99.90;;;;;;5072828;28;20441;-81
2021/12/23 14:01:55;;;;;;;3.83;3.03;;;7.60;99.90;;;;;;5072804;28;20476;-79
2021/12/23 14:04:30;;;;;;;6.70;3.90;;;7.70;99.90;;;;;;5072761;28;20456;-79
2021/12/23 14:06:58;;;;;;;4.03;3.73;;;7.60;99.90;;;;;;5072699;28;20461;-79
2021/12/23 14:09:31;;;;;;;14.97;4.70;;;7.60;99.90;;;;;;5072299;28;20463;-77
2021/12/23 14:11:59;;;;;;;7.10;3.90;;;7.70;99.90;;;;;;5072208;28;20469;-69
2021/12/23 14:14:28;;;;;;;8.10;4.63;;;7.70;99.90;;;;;;5072356;28;20953;-80
2021/12/23 14:16:54;;;;;;;10.53;4.70;;;7.60;99.90;;;;;;5072168;28;20454;-80
2021/12/23 14:19:26;;;;;;;7.53;4.03;;;7.60;99.90;;;;;;5071280;28;20485;-76
2021/12/23 14:24:39;;;;;;;6.50;4.80;;;7.50;99.90;;;;;;5072174;28;20425;-79
2021/12/23 14:27:06;;;;;;;6.20;4.50;;;7.60;99.90;;;;;;5071552;28;20442;-79
2021/12/23 14:29:37;;;;;;;5.60;4.00;;;7.60;99.90;;;;;;5071815;28;20866;-79
2021/12/23 14:32:05;;;;;;;8.57;3.80;;;7.50;99.90;;;;;;5070555;28;20453;-80
2021/12/23 14:34:35;;;;;;;5.83;3.97;;;7.50;99.90;;;;;;5071958;28;20487;-79
2021/12/23 14:37:09;;;;;;;6.83;4.53;;;7.40;99.90;;;;;;5078087;28;20983;-80
2021/12/23 14:39:39;;;;;;;4.73;4.00;;;7.50;99.90;;;;;;5112252;28;20466;-79
2021/12/23 14:42:12;;;;;;;7.17;4.70;;;7.50;99.90;;;;;;5111668;28;20483;-79
2021/12/23 14:44:42;;;;;;;8.37;4.60;;;7.40;99.90;;;;;;5112419;28;20451;-79
2021/12/23 14:47:14;;;;;;;6.77;4.67;;;7.50;99.90;;;;;;5111661;28;20492;-80
2021/12/23 14:52:36;;;;;;;7.73;4.60;;;7.50;99.90;;;;;;5112087;28;20432;-79
2021/12/23 14:55:09;;;;;;;7.43;4.00;;;7.50;99.90;;;;;;5112032;28;20448;-79
2021/12/23 14:57:38;;;;;;;6.30;4.83;;;7.60;99.90;;;;;;5112449;28;20427;-78
2021/12/23 15:00:12;;;;;;;10.93;4.10;;;7.60;99.90;;;;;;5111256;28;20872;-78
2021/12/23 15:02:40;;;;;;;7.20;4.70;;;7.60;99.90;;;;;;5111922;28;21054;-82
2021/12/23 15:05:12;;;;;;;7.70;4.57;;;7.60;99.90;;;;;;5111357;28;20821;-79
2021/12/23 15:07:55;;;;;;;5.90;4.33;;;7.50;99.90;;;;;;5112077;28;20463;-80
2021/12/23 15:10:43;;;;;;;6.97;4.23;;;7.70;99.90;;;;;;5111063;28;20435;-79
2021/12/23 15:13:23;;;;;;;5.83;4.50;;;7.60;99.90;;;;;;5111283;28;20454;-81
2021/12/23 15:16:07;;;;;;;5.63;4.30;;;7.60;99.90;;;;;;5099044;28;20452;-81